sensor_id;sensor_type;location;lat;lon;timestamp;P1;durP1;ratioP1;P2;durP2;ratioP2
70367;SDS011;57789;53.868;10.728;2023-04-06T00:01:37;15.10;;;8.27;;
70367;SDS011;57789;53.868;10.728;2023-04-06T00:04:03;15.80;;;8.90;;
70367;SDS011;57789;53.868;10.728;2023-04-06T00:06:29;13.67;;;8.60;;
70367;SDS011;57789;53.868;10.728;2023-04-06T00:08:57;15.13;;;8.70;;
70367;SDS011;57789;53.868;10.728;2023-04-06T00:11:23;19.47;;;9.17;;
70367;SDS011;57789;53.868;10.728;2023-04-06T00:13:49;15.83;;;7.80;;
70367;SDS011;57789;53.868;10.728;2023-04-06T00:16:14;18.30;;;8.47;;
70367;SDS011;57789;53.868;10.728;2023-04-06T00:18:40;19.43;;;8.70;;
70367;SDS011;57789;53.868;10.728;2023-04-06T00:21:06;15.70;;;8.07;;
70367;SDS011;57789;53.868;10.728;2023-04-06T00:23:32;17.70;;;9.43;;
70367;SDS011;57789;53.868;10.728;2023-04-06T00:25:57;12.73;;;8.30;;
70367;SDS011;57789;53.868;10.728;2023-04-06T00:28:23;18.63;;;8.47;;
70367;SDS011;57789;53.868;10.728;2023-04-06T00:30:54;21.33;;;7.43;;
70367;SDS011;57789;53.868;10.728;2023-04-06T00:33:20;18.10;;;7.63;;
70367;SDS011;57789;53.868;10.728;2023-04-06T00:35:47;13.17;;;7.23;;
70367;SDS011;57789;53.868;10.728;2023-04-06T00:38:13;20.53;;;9.10;;
70367;SDS011;57789;53.868;10.728;2023-04-06T00:40:40;18.20;;;8.83;;
70367;SDS011;57789;53.868;10.728;2023-04-06T00:43:06;11.60;;;7.07;;
70367;SDS011;57789;53.868;10.728;2023-04-06T00:45:32;17.60;;;7.93;;
70367;SDS011;57789;53.868;10.728;2023-04-06T00:47:58;14.13;;;7.30;;
70367;SDS011;57789;53.868;10.728;2023-04-06T00:50:24;12.10;;;7.70;;
70367;SDS011;57789;53.868;10.728;2023-04-06T00:52:50;26.60;;;9.33;;
70367;SDS011;57789;53.868;10.728;2023-04-06T00:55:16;13.40;;;7.53;;
70367;SDS011;57789;53.868;10.728;2023-04-06T00:57:42;20.60;;;9.00;;
70367;SDS011;57789;53.868;10.728;2023-04-06T01:00:08;19.90;;;8.20;;
70367;SDS011;57789;53.868;10.728;2023-04-06T01:02:35;18.77;;;8.60;;
70367;SDS011;57789;53.868;10.728;2023-04-06T01:05:01;17.77;;;9.17;;
70367;SDS011;57789;53.868;10.728;2023-04-06T01:07:27;24.20;;;10.40;;
70367;SDS011;57789;53.868;10.728;2023-04-06T01:09:55;19.90;;;9.33;;
70367;SDS011;57789;53.868;10.728;2023-04-06T01:12:21;21.70;;;8.93;;
70367;SDS011;57789;53.868;10.728;2023-04-06T01:14:47;16.37;;;9.33;;
70367;SDS011;57789;53.868;10.728;2023-04-06T01:17:13;21.53;;;8.80;;
70367;SDS011;57789;53.868;10.728;2023-04-06T01:19:39;21.50;;;9.10;;
70367;SDS011;57789;53.868;10.728;2023-04-06T01:22:05;17.43;;;9.93;;
70367;SDS011;57789;53.868;10.728;2023-04-06T01:24:32;15.37;;;9.10;;
70367;SDS011;57789;53.868;10.728;2023-04-06T01:26:58;18.50;;;8.17;;
70367;SDS011;57789;53.868;10.728;2023-04-06T01:29:23;16.77;;;8.33;;
70367;SDS011;57789;53.868;10.728;2023-04-06T01:31:49;19.73;;;8.83;;
70367;SDS011;57789;53.868;10.728;2023-04-06T01:34:15;15.07;;;7.93;;
70367;SDS011;57789;53.868;10.728;2023-04-06T01:36:41;18.63;;;8.23;;
70367;SDS011;57789;53.868;10.728;2023-04-06T01:39:07;13.73;;;8.10;;
70367;SDS011;57789;53.868;10.728;2023-04-06T01:41:33;17.83;;;8.77;;
70367;SDS011;57789;53.868;10.728;2023-04-06T01:43:59;18.20;;;9.53;;
70367;SDS011;57789;53.868;10.728;2023-04-06T01:46:25;16.50;;;9.87;;
70367;SDS011;57789;53.868;10.728;2023-04-06T01:48:51;17.77;;;8.90;;
70367;SDS011;57789;53.868;10.728;2023-04-06T01:51:17;19.97;;;8.37;;
70367;SDS011;57789;53.868;10.728;2023-04-06T01:53:42;18.47;;;9.53;;
70367;SDS011;57789;53.868;10.728;2023-04-06T01:56:08;18.77;;;9.13;;
70367;SDS011;57789;53.868;10.728;2023-04-06T01:58:34;20.43;;;9.37;;
70367;SDS011;57789;53.868;10.728;2023-04-06T02:01:00;15.70;;;8.57;;
70367;SDS011;57789;53.868;10.728;2023-04-06T02:03:26;26.60;;;12.20;;
70367;SDS011;57789;53.868;10.728;2023-04-06T02:05:52;21.57;;;10.77;;
70367;SDS011;57789;53.868;10.728;2023-04-06T02:08:17;20.40;;;10.13;;
70367;SDS011;57789;53.868;10.728;2023-04-06T02:10:43;23.37;;;9.97;;
70367;SDS011;57789;53.868;10.728;2023-04-06T02:13:09;17.97;;;9.73;;
70367;SDS011;57789;53.868;10.728;2023-04-06T02:15:34;18.77;;;9.83;;
70367;SDS011;57789;53.868;10.728;2023-04-06T02:18:00;24.63;;;9.63;;
70367;SDS011;57789;53.868;10.728;2023-04-06T02:20:26;17.00;;;9.47;;
70367;SDS011;57789;53.868;10.728;2023-04-06T02:22:52;21.53;;;10.50;;
70367;SDS011;57789;53.868;10.728;2023-04-06T02:25:17;17.40;;;8.60;;
70367;SDS011;57789;53.868;10.728;2023-04-06T02:27:43;18.07;;;10.87;;
70367;SDS011;57789;53.868;10.728;2023-04-06T02:30:09;19.20;;;10.80;;
70367;SDS011;57789;53.868;10.728;2023-04-06T02:32:35;26.58;;;11.73;;
70367;SDS011;57789;53.868;10.728;2023-04-06T02:35:01;19.73;;;10.90;;
70367;SDS011;57789;53.868;10.728;2023-04-06T02:37:27;20.77;;;11.73;;
70367;SDS011;57789;53.868;10.728;2023-04-06T02:39:52;25.10;;;12.67;;
70367;SDS011;57789;53.868;10.728;2023-04-06T02:42:18;19.23;;;10.33;;
70367;SDS011;57789;53.868;10.728;2023-04-06T02:44:44;28.88;;;10.52;;
70367;SDS011;57789;53.868;10.728;2023-04-06T02:47:10;32.47;;;11.43;;
70367;SDS011;57789;53.868;10.728;2023-04-06T02:49:36;21.50;;;11.17;;
70367;SDS011;57789;53.868;10.728;2023-04-06T02:52:01;24.20;;;10.73;;
70367;SDS011;57789;53.868;10.728;2023-04-06T02:54:27;21.93;;;10.60;;
70367;SDS011;57789;53.868;10.728;2023-04-06T02:56:53;25.40;;;11.23;;
70367;SDS011;57789;53.868;10.728;2023-04-06T02:59:18;31.20;;;14.63;;
70367;SDS011;57789;53.868;10.728;2023-04-06T03:01:44;23.50;;;12.57;;
70367;SDS011;57789;53.868;10.728;2023-04-06T03:04:10;27.93;;;15.03;;
70367;SDS011;57789;53.868;10.728;2023-04-06T03:06:36;22.27;;;12.00;;
70367;SDS011;57789;53.868;10.728;2023-04-06T03:09:02;23.27;;;11.40;;
70367;SDS011;57789;53.868;10.728;2023-04-06T03:11:28;25.33;;;12.57;;
70367;SDS011;57789;53.868;10.728;2023-04-06T03:13:54;25.40;;;12.90;;
70367;SDS011;57789;53.868;10.728;2023-04-06T03:16:19;26.60;;;12.20;;
70367;SDS011;57789;53.868;10.728;2023-04-06T03:18:45;23.13;;;10.67;;
70367;SDS011;57789;53.868;10.728;2023-04-06T03:21:12;25.83;;;11.98;;
70367;SDS011;57789;53.868;10.728;2023-04-06T03:23:41;39.58;;;14.38;;
70367;SDS011;57789;53.868;10.728;2023-04-06T03:26:07;23.50;;;11.07;;
70367;SDS011;57789;53.868;10.728;2023-04-06T03:28:33;21.20;;;11.80;;
70367;SDS011;57789;53.868;10.728;2023-04-06T03:30:58;20.87;;;10.70;;
70367;SDS011;57789;53.868;10.728;2023-04-06T03:33:24;26.63;;;11.98;;
70367;SDS011;57789;53.868;10.728;2023-04-06T03:35:53;21.35;;;11.77;;
70367;SDS011;57789;53.868;10.728;2023-04-06T03:38:19;21.47;;;11.20;;
70367;SDS011;57789;53.868;10.728;2023-04-06T03:40:45;28.47;;;14.07;;
70367;SDS011;57789;53.868;10.728;2023-04-06T03:43:11;22.47;;;13.80;;
70367;SDS011;57789;53.868;10.728;2023-04-06T03:45:36;25.40;;;13.67;;
70367;SDS011;57789;53.868;10.728;2023-04-06T03:48:02;20.23;;;11.13;;
70367;SDS011;57789;53.868;10.728;2023-04-06T03:50:28;28.58;;;12.82;;
70367;SDS011;57789;53.868;10.728;2023-04-06T03:52:54;27.50;;;12.67;;
70367;SDS011;57789;53.868;10.728;2023-04-06T03:55:20;25.10;;;12.93;;
70367;SDS011;57789;53.868;10.728;2023-04-06T03:57:46;23.60;;;12.43;;
70367;SDS011;57789;53.868;10.728;2023-04-06T04:00:13;24.70;;;12.40;;
70367;SDS011;57789;53.868;10.728;2023-04-06T04:02:39;22.25;;;12.68;;
70367;SDS011;57789;53.868;10.728;2023-04-06T04:05:05;24.83;;;12.47;;
70367;SDS011;57789;53.868;10.728;2023-04-06T04:07:31;22.70;;;13.13;;
70367;SDS011;57789;53.868;10.728;2023-04-06T04:09:57;28.83;;;14.53;;
70367;SDS011;57789;53.868;10.728;2023-04-06T04:12:22;27.43;;;13.50;;
70367;SDS011;57789;53.868;10.728;2023-04-06T04:14:48;27.63;;;12.77;;
70367;SDS011;57789;53.868;10.728;2023-04-06T04:17:14;19.97;;;11.40;;
70367;SDS011;57789;53.868;10.728;2023-04-06T04:19:40;24.57;;;11.80;;
70367;SDS011;57789;53.868;10.728;2023-04-06T04:22:05;25.97;;;12.27;;
70367;SDS011;57789;53.868;10.728;2023-04-06T04:24:31;29.67;;;14.30;;
70367;SDS011;57789;53.868;10.728;2023-04-06T04:26:58;23.35;;;12.63;;
70367;SDS011;57789;53.868;10.728;2023-04-06T04:29:25;19.70;;;11.57;;
70367;SDS011;57789;53.868;10.728;2023-04-06T04:31:51;20.80;;;12.47;;
70367;SDS011;57789;53.868;10.728;2023-04-06T04:34:17;28.50;;;13.33;;
70367;SDS011;57789;53.868;10.728;2023-04-06T04:36:45;24.02;;;12.98;;
70367;SDS011;57789;53.868;10.728;2023-04-06T04:39:11;29.30;;;15.20;;
70367;SDS011;57789;53.868;10.728;2023-04-06T04:41:37;33.20;;;13.80;;
70367;SDS011;57789;53.868;10.728;2023-04-06T04:44:02;26.90;;;13.50;;
70367;SDS011;57789;53.868;10.728;2023-04-06T04:46:28;27.00;;;14.67;;
70367;SDS011;57789;53.868;10.728;2023-04-06T04:48:54;30.50;;;14.80;;
70367;SDS011;57789;53.868;10.728;2023-04-06T04:51:20;34.17;;;15.03;;
70367;SDS011;57789;53.868;10.728;2023-04-06T04:53:46;68.73;;;31.50;;
70367;SDS011;57789;53.868;10.728;2023-04-06T04:56:11;52.83;;;25.40;;
70367;SDS011;57789;53.868;10.728;2023-04-06T04:58:37;33.40;;;16.80;;
70367;SDS011;57789;53.868;10.728;2023-04-06T05:01:03;72.60;;;33.23;;
70367;SDS011;57789;53.868;10.728;2023-04-06T05:03:29;55.63;;;25.50;;
70367;SDS011;57789;53.868;10.728;2023-04-06T05:05:55;56.17;;;26.03;;
70367;SDS011;57789;53.868;10.728;2023-04-06T05:08:20;52.47;;;23.97;;
70367;SDS011;57789;53.868;10.728;2023-04-06T05:10:46;35.60;;;20.33;;
70367;SDS011;57789;53.868;10.728;2023-04-06T05:13:13;68.77;;;29.83;;
70367;SDS011;57789;53.868;10.728;2023-04-06T05:15:39;107.43;;;42.27;;
70367;SDS011;57789;53.868;10.728;2023-04-06T05:18:05;47.87;;;22.00;;
70367;SDS011;57789;53.868;10.728;2023-04-06T05:20:32;67.20;;;28.37;;
70367;SDS011;57789;53.868;10.728;2023-04-06T05:22:58;63.13;;;28.73;;
70367;SDS011;57789;53.868;10.728;2023-04-06T05:25:24;52.67;;;21.30;;
70367;SDS011;57789;53.868;10.728;2023-04-06T05:27:50;50.87;;;25.40;;
70367;SDS011;57789;53.868;10.728;2023-04-06T05:30:16;49.40;;;24.97;;
70367;SDS011;57789;53.868;10.728;2023-04-06T05:32:43;51.20;;;22.93;;
70367;SDS011;57789;53.868;10.728;2023-04-06T05:35:09;47.07;;;22.17;;
70367;SDS011;57789;53.868;10.728;2023-04-06T05:37:35;44.30;;;19.70;;
70367;SDS011;57789;53.868;10.728;2023-04-06T05:40:01;39.83;;;20.90;;
70367;SDS011;57789;53.868;10.728;2023-04-06T05:42:27;42.90;;;18.63;;
70367;SDS011;57789;53.868;10.728;2023-04-06T05:45:01;39.47;;;17.13;;
70367;SDS011;57789;53.868;10.728;2023-04-06T05:47:27;37.27;;;18.07;;
70367;SDS011;57789;53.868;10.728;2023-04-06T05:49:53;36.20;;;17.27;;
70367;SDS011;57789;53.868;10.728;2023-04-06T05:52:19;35.43;;;18.13;;
70367;SDS011;57789;53.868;10.728;2023-04-06T05:54:44;33.53;;;17.33;;
70367;SDS011;57789;53.868;10.728;2023-04-06T05:57:10;60.93;;;30.03;;
70367;SDS011;57789;53.868;10.728;2023-04-06T05:59:36;119.20;;;51.70;;
70367;SDS011;57789;53.868;10.728;2023-04-06T06:02:01;45.40;;;24.07;;
70367;SDS011;57789;53.868;10.728;2023-04-06T06:04:30;45.03;;;23.23;;
70367;SDS011;57789;53.868;10.728;2023-04-06T06:06:56;36.87;;;20.60;;
70367;SDS011;57789;53.868;10.728;2023-04-06T06:09:22;42.53;;;21.13;;
70367;SDS011;57789;53.868;10.728;2023-04-06T06:11:48;48.53;;;24.40;;
70367;SDS011;57789;53.868;10.728;2023-04-06T06:14:14;41.20;;;22.10;;
70367;SDS011;57789;53.868;10.728;2023-04-06T06:16:40;35.53;;;18.23;;
70367;SDS011;57789;53.868;10.728;2023-04-06T06:19:06;32.17;;;18.30;;
70367;SDS011;57789;53.868;10.728;2023-04-06T06:21:31;38.80;;;20.70;;
70367;SDS011;57789;53.868;10.728;2023-04-06T06:23:57;42.53;;;21.00;;
70367;SDS011;57789;53.868;10.728;2023-04-06T06:26:23;36.10;;;20.00;;
70367;SDS011;57789;53.868;10.728;2023-04-06T06:28:49;37.30;;;18.60;;
70367;SDS011;57789;53.868;10.728;2023-04-06T06:31:14;58.30;;;28.70;;
70367;SDS011;57789;53.868;10.728;2023-04-06T06:33:41;40.30;;;21.83;;
70367;SDS011;57789;53.868;10.728;2023-04-06T06:36:06;42.17;;;22.80;;
70367;SDS011;57789;53.868;10.728;2023-04-06T06:38:33;55.83;;;25.40;;
70367;SDS011;57789;53.868;10.728;2023-04-06T06:40:58;44.50;;;21.70;;
70367;SDS011;57789;53.868;10.728;2023-04-06T06:43:24;67.93;;;27.97;;
70367;SDS011;57789;53.868;10.728;2023-04-06T06:45:50;38.77;;;20.37;;
70367;SDS011;57789;53.868;10.728;2023-04-06T06:48:16;32.27;;;17.07;;
70367;SDS011;57789;53.868;10.728;2023-04-06T06:50:42;27.70;;;15.73;;
70367;SDS011;57789;53.868;10.728;2023-04-06T06:53:07;35.93;;;18.30;;
70367;SDS011;57789;53.868;10.728;2023-04-06T06:55:33;28.33;;;15.60;;
70367;SDS011;57789;53.868;10.728;2023-04-06T06:57:59;25.70;;;15.70;;
70367;SDS011;57789;53.868;10.728;2023-04-06T07:00:25;27.40;;;14.37;;
70367;SDS011;57789;53.868;10.728;2023-04-06T07:02:50;27.53;;;15.20;;
70367;SDS011;57789;53.868;10.728;2023-04-06T07:05:16;33.13;;;15.43;;
70367;SDS011;57789;53.868;10.728;2023-04-06T07:07:42;23.33;;;14.50;;
70367;SDS011;57789;53.868;10.728;2023-04-06T07:10:08;33.30;;;16.90;;
70367;SDS011;57789;53.868;10.728;2023-04-06T07:12:34;26.33;;;14.27;;
70367;SDS011;57789;53.868;10.728;2023-04-06T07:15:00;24.87;;;12.20;;
70367;SDS011;57789;53.868;10.728;2023-04-06T07:17:26;21.83;;;13.67;;
70367;SDS011;57789;53.868;10.728;2023-04-06T07:19:52;20.90;;;12.43;;
70367;SDS011;57789;53.868;10.728;2023-04-06T07:22:17;23.40;;;12.73;;
70367;SDS011;57789;53.868;10.728;2023-04-06T07:24:43;24.13;;;13.07;;
70367;SDS011;57789;53.868;10.728;2023-04-06T07:27:09;28.33;;;14.30;;
70367;SDS011;57789;53.868;10.728;2023-04-06T07:29:35;18.80;;;12.53;;
70367;SDS011;57789;53.868;10.728;2023-04-06T07:32:01;22.30;;;12.23;;
70367;SDS011;57789;53.868;10.728;2023-04-06T07:34:26;22.53;;;12.20;;
70367;SDS011;57789;53.868;10.728;2023-04-06T07:36:52;21.10;;;11.80;;
70367;SDS011;57789;53.868;10.728;2023-04-06T07:39:19;23.00;;;13.03;;
70367;SDS011;57789;53.868;10.728;2023-04-06T07:41:45;23.60;;;12.47;;
70367;SDS011;57789;53.868;10.728;2023-04-06T07:44:11;20.50;;;11.07;;
70367;SDS011;57789;53.868;10.728;2023-04-06T07:46:36;24.20;;;9.80;;
70367;SDS011;57789;53.868;10.728;2023-04-06T07:49:02;17.67;;;10.80;;
70367;SDS011;57789;53.868;10.728;2023-04-06T07:51:29;19.93;;;11.20;;
70367;SDS011;57789;53.868;10.728;2023-04-06T07:53:55;20.60;;;10.03;;
70367;SDS011;57789;53.868;10.728;2023-04-06T07:56:21;17.67;;;10.53;;
70367;SDS011;57789;53.868;10.728;2023-04-06T07:58:48;21.70;;;10.93;;
70367;SDS011;57789;53.868;10.728;2023-04-06T08:01:13;21.20;;;11.90;;
70367;SDS011;57789;53.868;10.728;2023-04-06T08:03:39;19.40;;;11.80;;
70367;SDS011;57789;53.868;10.728;2023-04-06T08:06:05;17.80;;;11.33;;
70367;SDS011;57789;53.868;10.728;2023-04-06T08:08:31;21.70;;;11.53;;
70367;SDS011;57789;53.868;10.728;2023-04-06T08:10:57;20.53;;;11.67;;
70367;SDS011;57789;53.868;10.728;2023-04-06T08:13:23;18.20;;;11.87;;
70367;SDS011;57789;53.868;10.728;2023-04-06T08:15:48;19.33;;;11.23;;
70367;SDS011;57789;53.868;10.728;2023-04-06T08:18:14;16.43;;;11.17;;
70367;SDS011;57789;53.868;10.728;2023-04-06T08:20:40;17.50;;;10.33;;
70367;SDS011;57789;53.868;10.728;2023-04-06T08:23:06;19.60;;;10.70;;
70367;SDS011;57789;53.868;10.728;2023-04-06T08:25:34;18.23;;;10.70;;
70367;SDS011;57789;53.868;10.728;2023-04-06T08:28:01;17.30;;;8.70;;
70367;SDS011;57789;53.868;10.728;2023-04-06T08:30:28;15.93;;;8.50;;
70367;SDS011;57789;53.868;10.728;2023-04-06T08:32:54;15.70;;;8.70;;
70367;SDS011;57789;53.868;10.728;2023-04-06T08:35:20;13.17;;;8.67;;
70367;SDS011;57789;53.868;10.728;2023-04-06T08:37:46;21.03;;;9.17;;
70367;SDS011;57789;53.868;10.728;2023-04-06T08:40:12;15.00;;;8.40;;
70367;SDS011;57789;53.868;10.728;2023-04-06T08:42:43;14.50;;;8.00;;
70367;SDS011;57789;53.868;10.728;2023-04-06T08:45:16;13.20;;;8.70;;
70367;SDS011;57789;53.868;10.728;2023-04-06T08:47:43;10.33;;;6.10;;
70367;SDS011;57789;53.868;10.728;2023-04-06T08:50:09;12.50;;;6.93;;
70367;SDS011;57789;53.868;10.728;2023-04-06T08:52:36;9.97;;;6.27;;
70367;SDS011;57789;53.868;10.728;2023-04-06T08:55:04;11.90;;;6.77;;
70367;SDS011;57789;53.868;10.728;2023-04-06T08:57:30;11.73;;;5.97;;
70367;SDS011;57789;53.868;10.728;2023-04-06T08:59:56;10.30;;;6.63;;
70367;SDS011;57789;53.868;10.728;2023-04-06T09:02:25;15.20;;;5.40;;
70367;SDS011;57789;53.868;10.728;2023-04-06T09:04:52;9.50;;;5.50;;
70367;SDS011;57789;53.868;10.728;2023-04-06T09:07:19;9.20;;;5.53;;
70367;SDS011;57789;53.868;10.728;2023-04-06T09:09:46;7.40;;;3.23;;
70367;SDS011;57789;53.868;10.728;2023-04-06T09:12:29;7.37;;;4.33;;
70367;SDS011;57789;53.868;10.728;2023-04-06T09:14:56;8.10;;;4.70;;
70367;SDS011;57789;53.868;10.728;2023-04-06T09:17:27;8.20;;;3.53;;
70367;SDS011;57789;53.868;10.728;2023-04-06T09:19:54;7.00;;;3.83;;
70367;SDS011;57789;53.868;10.728;2023-04-06T09:22:20;6.47;;;4.00;;
70367;SDS011;57789;53.868;10.728;2023-04-06T09:24:50;11.40;;;3.43;;
70367;SDS011;57789;53.868;10.728;2023-04-06T09:27:17;4.57;;;3.20;;
70367;SDS011;57789;53.868;10.728;2023-04-06T09:30:02;5.90;;;3.70;;
70367;SDS011;57789;53.868;10.728;2023-04-06T09:32:32;6.53;;;2.80;;
70367;SDS011;57789;53.868;10.728;2023-04-06T09:35:08;4.40;;;2.20;;
70367;SDS011;57789;53.868;10.728;2023-04-06T09:37:34;14.07;;;3.37;;
70367;SDS011;57789;53.868;10.728;2023-04-06T09:40:04;7.80;;;3.13;;
70367;SDS011;57789;53.868;10.728;2023-04-06T09:42:31;5.53;;;3.17;;
70367;SDS011;57789;53.868;10.728;2023-04-06T09:44:57;5.07;;;2.57;;
70367;SDS011;57789;53.868;10.728;2023-04-06T09:47:22;4.00;;;2.83;;
70367;SDS011;57789;53.868;10.728;2023-04-06T09:49:50;4.20;;;2.80;;
70367;SDS011;57789;53.868;10.728;2023-04-06T09:52:19;4.97;;;1.80;;
70367;SDS011;57789;53.868;10.728;2023-04-06T09:54:48;6.83;;;2.90;;
70367;SDS011;57789;53.868;10.728;2023-04-06T10:05:43;4.03;;;1.77;;
70367;SDS011;57789;53.868;10.728;2023-04-06T10:08:15;7.37;;;2.17;;
70367;SDS011;57789;53.868;10.728;2023-04-06T10:10:43;5.00;;;2.10;;
70367;SDS011;57789;53.868;10.728;2023-04-06T10:13:10;3.60;;;2.50;;
70367;SDS011;57789;53.868;10.728;2023-04-06T10:15:37;5.07;;;2.50;;
70367;SDS011;57789;53.868;10.728;2023-04-06T10:18:04;5.90;;;2.83;;
70367;SDS011;57789;53.868;10.728;2023-04-06T10:23:10;3.27;;;2.20;;
70367;SDS011;57789;53.868;10.728;2023-04-06T10:25:54;6.03;;;2.87;;
70367;SDS011;57789;53.868;10.728;2023-04-06T10:28:24;7.53;;;2.60;;
70367;SDS011;57789;53.868;10.728;2023-04-06T10:30:57;3.80;;;2.93;;
70367;SDS011;57789;53.868;10.728;2023-04-06T10:33:25;5.03;;;2.90;;
70367;SDS011;57789;53.868;10.728;2023-04-06T10:35:52;3.53;;;2.57;;
70367;SDS011;57789;53.868;10.728;2023-04-06T10:38:18;6.47;;;3.03;;
70367;SDS011;57789;53.868;10.728;2023-04-06T10:40:49;3.63;;;2.83;;
70367;SDS011;57789;53.868;10.728;2023-04-06T10:43:21;3.67;;;2.87;;
70367;SDS011;57789;53.868;10.728;2023-04-06T10:45:57;5.80;;;2.90;;
70367;SDS011;57789;53.868;10.728;2023-04-06T10:48:25;6.13;;;3.30;;
70367;SDS011;57789;53.868;10.728;2023-04-06T10:51:17;4.50;;;3.30;;
70367;SDS011;57789;53.868;10.728;2023-04-06T10:53:45;4.03;;;2.70;;
70367;SDS011;57789;53.868;10.728;2023-04-06T10:56:16;5.20;;;2.73;;
70367;SDS011;57789;53.868;10.728;2023-04-06T11:01:16;5.77;;;3.37;;
70367;SDS011;57789;53.868;10.728;2023-04-06T11:03:44;4.60;;;3.47;;
70367;SDS011;57789;53.868;10.728;2023-04-06T11:06:10;5.13;;;3.17;;
70367;SDS011;57789;53.868;10.728;2023-04-06T11:08:36;4.53;;;3.10;;
70367;SDS011;57789;53.868;10.728;2023-04-06T11:11:04;7.50;;;3.30;;
70367;SDS011;57789;53.868;10.728;2023-04-06T11:13:37;7.43;;;2.63;;
70367;SDS011;57789;53.868;10.728;2023-04-06T11:16:16;4.03;;;2.40;;
70367;SDS011;57789;53.868;10.728;2023-04-06T11:18:47;10.23;;;3.23;;
70367;SDS011;57789;53.868;10.728;2023-04-06T11:21:19;5.47;;;2.80;;
70367;SDS011;57789;53.868;10.728;2023-04-06T11:24:04;4.00;;;2.80;;
70367;SDS011;57789;53.868;10.728;2023-04-06T11:26:30;6.10;;;2.90;;
70367;SDS011;57789;53.868;10.728;2023-04-06T11:28:56;6.10;;;3.03;;
70367;SDS011;57789;53.868;10.728;2023-04-06T11:31:25;5.20;;;3.17;;
70367;SDS011;57789;53.868;10.728;2023-04-06T11:33:58;4.70;;;3.17;;
70367;SDS011;57789;53.868;10.728;2023-04-06T11:36:26;4.50;;;2.80;;
70367;SDS011;57789;53.868;10.728;2023-04-06T11:38:56;5.27;;;2.87;;
70367;SDS011;57789;53.868;10.728;2023-04-06T11:41:23;6.70;;;3.10;;
70367;SDS011;57789;53.868;10.728;2023-04-06T11:43:51;4.40;;;2.87;;
70367;SDS011;57789;53.868;10.728;2023-04-06T11:46:20;4.50;;;2.70;;
70367;SDS011;57789;53.868;10.728;2023-04-06T11:48:46;4.87;;;2.60;;
70367;SDS011;57789;53.868;10.728;2023-04-06T11:51:12;5.37;;;3.10;;
70367;SDS011;57789;53.868;10.728;2023-04-06T11:53:46;6.00;;;3.40;;
70367;SDS011;57789;53.868;10.728;2023-04-06T11:56:22;6.53;;;2.60;;
70367;SDS011;57789;53.868;10.728;2023-04-06T11:58:53;4.80;;;3.10;;
70367;SDS011;57789;53.868;10.728;2023-04-06T12:01:20;6.03;;;2.97;;
70367;SDS011;57789;53.868;10.728;2023-04-06T12:03:45;5.70;;;3.30;;
70367;SDS011;57789;53.868;10.728;2023-04-06T12:06:11;4.27;;;3.10;;
70367;SDS011;57789;53.868;10.728;2023-04-06T12:08:37;5.10;;;3.60;;
70367;SDS011;57789;53.868;10.728;2023-04-06T12:11:03;7.90;;;4.10;;
70367;SDS011;57789;53.868;10.728;2023-04-06T12:13:28;6.13;;;3.53;;
70367;SDS011;57789;53.868;10.728;2023-04-06T12:15:54;5.87;;;4.43;;
70367;SDS011;57789;53.868;10.728;2023-04-06T12:18:22;4.40;;;3.67;;
70367;SDS011;57789;53.868;10.728;2023-04-06T12:20:48;7.37;;;4.20;;
70367;SDS011;57789;53.868;10.728;2023-04-06T12:23:18;6.83;;;4.10;;
70367;SDS011;57789;53.868;10.728;2023-04-06T12:25:44;5.80;;;4.57;;
70367;SDS011;57789;53.868;10.728;2023-04-06T12:28:11;5.40;;;4.00;;
70367;SDS011;57789;53.868;10.728;2023-04-06T12:30:37;8.63;;;4.63;;
70367;SDS011;57789;53.868;10.728;2023-04-06T12:33:03;6.77;;;4.13;;
70367;SDS011;57789;53.868;10.728;2023-04-06T12:35:28;6.67;;;3.73;;
70367;SDS011;57789;53.868;10.728;2023-04-06T12:37:58;5.20;;;4.50;;
70367;SDS011;57789;53.868;10.728;2023-04-06T12:40:24;5.07;;;4.10;;
70367;SDS011;57789;53.868;10.728;2023-04-06T12:42:49;8.20;;;4.03;;
70367;SDS011;57789;53.868;10.728;2023-04-06T12:45:15;6.73;;;4.53;;
70367;SDS011;57789;53.868;10.728;2023-04-06T12:47:41;7.03;;;4.20;;
70367;SDS011;57789;53.868;10.728;2023-04-06T12:50:07;6.10;;;4.53;;
70367;SDS011;57789;53.868;10.728;2023-04-06T12:52:33;5.30;;;4.03;;
70367;SDS011;57789;53.868;10.728;2023-04-06T12:55:01;5.20;;;4.27;;
70367;SDS011;57789;53.868;10.728;2023-04-06T12:57:27;6.13;;;3.90;;
70367;SDS011;57789;53.868;10.728;2023-04-06T12:59:53;5.97;;;4.53;;
70367;SDS011;57789;53.868;10.728;2023-04-06T13:02:19;5.70;;;4.23;;
70367;SDS011;57789;53.868;10.728;2023-04-06T13:04:46;7.33;;;5.50;;
70367;SDS011;57789;53.868;10.728;2023-04-06T13:07:13;4.80;;;4.10;;
70367;SDS011;57789;53.868;10.728;2023-04-06T13:09:39;7.53;;;4.20;;
70367;SDS011;57789;53.868;10.728;2023-04-06T13:12:05;5.83;;;4.23;;
70367;SDS011;57789;53.868;10.728;2023-04-06T13:14:31;5.37;;;4.70;;
70367;SDS011;57789;53.868;10.728;2023-04-06T13:16:57;6.17;;;4.57;;
70367;SDS011;57789;53.868;10.728;2023-04-06T13:19:22;6.10;;;4.70;;
70367;SDS011;57789;53.868;10.728;2023-04-06T13:21:48;10.00;;;4.97;;
70367;SDS011;57789;53.868;10.728;2023-04-06T13:24:14;5.83;;;4.70;;
70367;SDS011;57789;53.868;10.728;2023-04-06T13:26:40;6.67;;;4.57;;
70367;SDS011;57789;53.868;10.728;2023-04-06T13:29:06;8.90;;;6.40;;
70367;SDS011;57789;53.868;10.728;2023-04-06T13:31:31;7.50;;;5.43;;
70367;SDS011;57789;53.868;10.728;2023-04-06T13:33:57;8.33;;;4.87;;
70367;SDS011;57789;53.868;10.728;2023-04-06T13:36:23;8.53;;;5.93;;
70367;SDS011;57789;53.868;10.728;2023-04-06T13:38:51;7.33;;;6.50;;
70367;SDS011;57789;53.868;10.728;2023-04-06T13:41:21;6.10;;;4.70;;
70367;SDS011;57789;53.868;10.728;2023-04-06T13:43:48;7.10;;;5.27;;
70367;SDS011;57789;53.868;10.728;2023-04-06T13:46:17;6.67;;;5.63;;
70367;SDS011;57789;53.868;10.728;2023-04-06T13:48:43;7.10;;;5.43;;
70367;SDS011;57789;53.868;10.728;2023-04-06T13:51:12;7.20;;;5.47;;
70367;SDS011;57789;53.868;10.728;2023-04-06T13:53:39;10.20;;;5.80;;
70367;SDS011;57789;53.868;10.728;2023-04-06T13:56:05;12.60;;;5.73;;
70367;SDS011;57789;53.868;10.728;2023-04-06T13:58:32;5.60;;;4.90;;
70367;SDS011;57789;53.868;10.728;2023-04-06T14:01:16;8.40;;;5.70;;
70367;SDS011;57789;53.868;10.728;2023-04-06T14:03:42;6.57;;;5.40;;
70367;SDS011;57789;53.868;10.728;2023-04-06T14:06:13;6.47;;;5.70;;
70367;SDS011;57789;53.868;10.728;2023-04-06T14:08:40;7.63;;;5.97;;
70367;SDS011;57789;53.868;10.728;2023-04-06T14:11:06;7.73;;;6.37;;
70367;SDS011;57789;53.868;10.728;2023-04-06T14:13:36;5.63;;;5.00;;
70367;SDS011;57789;53.868;10.728;2023-04-06T14:16:03;7.13;;;6.20;;
70367;SDS011;57789;53.868;10.728;2023-04-06T14:18:30;7.30;;;6.10;;
70367;SDS011;57789;53.868;10.728;2023-04-06T14:21:00;7.80;;;5.67;;
70367;SDS011;57789;53.868;10.728;2023-04-06T14:23:29;10.73;;;5.93;;
70367;SDS011;57789;53.868;10.728;2023-04-06T14:26:02;7.73;;;6.57;;
70367;SDS011;57789;53.868;10.728;2023-04-06T14:28:29;6.33;;;5.40;;
70367;SDS011;57789;53.868;10.728;2023-04-06T14:30:56;5.87;;;5.33;;
70367;SDS011;57789;53.868;10.728;2023-04-06T14:33:28;10.40;;;6.00;;